Time;durP1;ratioP1;P1;durP2;ratioP2;P2;SDS_P1;SDS_P2;PMS_P1;PMS_P2;Temp;Humidity;BMP_temperature;BMP_pressure;BME280_temperature;BME280_humidity;BME280_pressure;Samples;Min_cycle;Max_cycle;Signal;HPM_P1;HPM_P2
2022/05/09 00:01:05;;;;;;;5.97;5.30;;;;;;;14.99;65.76;99701.47;5097251;28;41958;-81
2022/05/09 00:03:37;;;;;;;6.10;5.50;;;;;;;14.97;65.60;99714.06;5115105;28;43070;-80
2022/05/09 00:06:06;;;;;;;7.00;5.83;;;;;;;14.90;65.80;99712.75;5114105;28;40063;-80
2022/05/09 00:08:39;;;;;;;6.00;5.43;;;;;;;14.89;66.00;99717.25;5097026;28;40938;-80
2022/05/09 00:11:07;;;;;;;6.23;4.87;;;;;;;14.86;66.00;99709.44;5113695;28;44268;-80
2022/05/09 00:13:36;;;;;;;5.60;5.10;;;;;;;14.83;66.59;99722.16;5132201;27;42382;-81
2022/05/09 00:16:04;;;;;;;5.30;4.77;;;;;;;14.80;65.96;99717.00;5133558;27;42178;-79
2022/05/09 00:18:32;;;;;;;7.17;5.73;;;;;;;14.74;65.91;99719.09;5133904;27;40657;-81
2022/05/09 00:21:00;;;;;;;5.60;5.00;;;;;;;14.71;65.92;99718.47;5135548;27;42665;-81
2022/05/09 00:23:29;;;;;;;6.80;4.90;;;;;;;14.69;65.97;99705.25;5116863;27;43594;-81
2022/05/09 00:25:57;;;;;;;7.43;5.10;;;;;;;14.64;66.09;99703.81;5133668;27;40292;-78
2022/05/09 00:28:25;;;;;;;6.63;5.20;;;;;;;14.63;66.04;99712.78;5134137;27;41560;-79
2022/05/09 00:30:55;;;;;;;8.33;5.50;;;;;;;14.59;66.31;99711.25;5133779;27;41736;-79
2022/05/09 00:33:24;;;;;;;8.03;4.97;;;;;;;14.56;66.37;99709.66;5134779;27;43184;-79
2022/05/09 00:35:52;;;;;;;7.23;5.67;;;;;;;14.53;66.87;99712.53;5131852;27;39994;-81
2022/05/09 00:38:20;;;;;;;5.23;4.70;;;;;;;14.51;66.84;99711.75;5133636;27;41600;-80
2022/05/09 00:43:36;;;;;;;8.03;5.20;;;;;;;14.45;67.12;99711.31;5112950;28;43352;-82
2022/05/09 00:46:05;;;;;;;5.53;4.50;;;;;;;14.40;67.27;99714.28;5110528;28;41225;-82
2022/05/09 00:48:33;;;;;;;6.97;5.27;;;;;;;14.33;67.53;99704.94;5096180;28;42753;-79
2022/05/09 00:51:02;;;;;;;7.63;5.10;;;;;;;14.34;67.40;99714.66;5113512;28;43893;-82
2022/05/09 00:53:32;;;;;;;6.73;5.30;;;;;;;14.21;67.26;99687.06;5113121;28;42665;-79
2022/05/09 00:56:05;;;;;;;6.67;5.13;;;;;;;14.28;67.04;99710.56;5095494;28;39131;-82
2022/05/09 00:58:37;;;;;;;7.60;5.17;;;;;;;14.25;66.96;99710.75;5077617;28;40811;-81
2022/05/09 01:01:05;;;;;;;6.73;4.33;;;;;;;14.23;66.77;99703.78;5092672;28;43131;-79
2022/05/09 01:03:37;;;;;;;6.30;4.87;;;;;;;14.20;66.75;99706.69;5092131;28;42395;-78
2022/05/09 01:06:05;;;;;;;4.80;4.27;;;;;;;14.13;66.68;99706.19;5089832;28;41678;-81
2022/05/09 01:08:33;;;;;;;5.10;4.67;;;;;;;14.03;66.46;99689.94;5075660;28;42361;-79
2022/05/09 01:11:05;;;;;;;6.30;4.40;;;;;;;14.11;66.79;99707.25;5075641;28;42954;-79
2022/05/09 01:13:37;;;;;;;4.83;4.43;;;;;;;14.09;66.49;99709.16;5126081;27;41567;-79
2022/05/09 01:16:05;;;;;;;4.90;3.77;;;;;;;14.05;66.87;99704.97;5116205;27;40307;-81
2022/05/09 01:18:34;;;;;;;5.17;4.40;;;;;;;14.03;66.57;99707.72;5115955;27;42324;-82
2022/05/09 01:21:01;;;;;;;4.90;4.40;;;;;;;13.98;66.72;99713.34;5116360;27;42824;-82
2022/05/09 01:23:35;;;;;;;5.40;3.97;;;;;;;14.00;66.64;99721.22;5133410;27;42390;-78
2022/05/09 01:26:03;;;;;;;6.80;4.53;;;;;;;13.96;67.06;99709.94;5114995;27;38913;-80
2022/05/09 01:28:31;;;;;;;5.33;4.67;;;;;;;13.95;67.04;99710.88;5133944;27;42510;-82
2022/05/09 01:31:02;;;;;;;5.87;4.27;;;;;;;13.91;67.15;99706.69;5133379;27;42600;-79
2022/05/09 01:33:35;;;;;;;4.33;3.57;;;;;;;13.89;66.88;99713.91;5115772;27;44022;-80
2022/05/09 01:36:09;;;;;;;5.10;4.50;;;;;;;13.87;66.64;99713.16;5116192;27;40013;-80
2022/05/09 01:38:45;;;;;;;5.00;3.83;;;;;;;13.82;66.69;99715.28;5133072;27;40472;-81
2022/05/09 01:41:12;;;;;;;5.33;4.13;;;;;;;13.80;66.92;99716.31;5120029;27;43771;-82
2022/05/09 01:43:42;;;;;;;4.37;3.20;;;;;;;13.79;66.77;99709.28;5113126;27;42460;-81
2022/05/09 01:46:13;;;;;;;5.37;3.37;;;;;;;13.76;66.66;99718.28;5095160;28;38918;-81
2022/05/09 01:51:26;;;;;;;5.23;3.53;;;;;;;13.69;66.83;99716.97;5109528;28;42813;-80
2022/05/09 01:53:57;;;;;;;5.43;4.03;;;;;;;13.65;67.16;99720.75;5112289;28;42698;-79
2022/05/09 01:56:27;;;;;;;4.63;4.10;;;;;;;13.63;66.79;99733.31;5095121;28;42917;-79
2022/05/09 01:58:55;;;;;;;4.33;3.73;;;;;;;13.58;66.67;99722.97;5112293;28;42648;-79
2022/05/09 02:01:25;;;;;;;4.37;3.37;;;;;;;13.58;66.52;99724.75;5095110;28;41465;-81
2022/05/09 02:03:54;;;;;;;3.57;3.13;;;;;;;13.50;66.11;99719.03;5113254;28;42567;-79
2022/05/09 02:06:21;;;;;;;3.90;3.53;;;;;;;13.51;66.10;99718.94;5094989;28;40377;-82
2022/05/09 02:08:49;;;;;;;4.10;3.00;;;;;;;13.51;66.11;99724.25;5112063;28;44099;-80
2022/05/09 02:11:18;;;;;;;3.53;2.77;;;;;;;13.47;66.40;99727.22;5111899;28;43507;-80
2022/05/09 02:13:46;;;;;;;4.77;3.80;;;;;;;13.44;66.18;99719.41;5130975;27;42452;-80
2022/05/09 02:16:13;;;;;;;5.37;3.27;;;;;;;13.42;66.45;99718.66;5132617;27;38969;-81
2022/05/09 02:18:41;;;;;;;3.93;2.90;;;;;;;13.40;66.28;99720.53;5131876;27;42281;-80
2022/05/09 02:21:08;;;;;;;3.57;3.03;;;;;;;13.38;66.49;99719.78;5132696;27;43558;-81
2022/05/09 02:23:36;;;;;;;5.20;3.40;;;;;;;13.35;66.32;99719.97;5132390;27;41106;-82
2022/05/09 02:26:04;;;;;;;4.53;3.20;;;;;;;13.32;66.05;99720.16;5115147;27;40410;-79
2022/05/09 02:28:33;;;;;;;3.93;3.00;;;;;;;13.28;66.07;99719.47;5115285;27;41104;-82
2022/05/09 02:31:01;;;;;;;3.47;3.10;;;;;;;13.25;66.12;99715.19;5132365;27;41910;-81
2022/05/09 02:33:29;;;;;;;3.83;3.00;;;;;;;13.22;66.07;99717.19;5114986;27;41013;-81
2022/05/09 02:35:57;;;;;;;4.97;3.37;;;;;;;13.17;66.29;99713.94;5133779;27;39957;-81
2022/05/09 02:38:28;;;;;;;4.57;3.30;;;;;;;13.18;65.81;99720.97;5131406;27;42205;-80
2022/05/09 02:40:58;;;;;;;5.23;3.93;;;;;;;13.12;66.41;99716.81;5120537;27;42652;-79
2022/05/09 02:43:25;;;;;;;3.63;3.17;;;;;;;13.16;66.19;99722.88;5093697;28;40942;-80
2022/05/09 02:46:01;;;;;;;5.43;2.87;;;;;;;13.14;66.06;99722.94;5111449;28;41256;-78
2022/05/09 02:48:29;;;;;;;4.60;3.10;;;;;;;13.09;66.10;99717.03;5111478;28;42742;-78
2022/05/09 02:50:57;;;;;;;3.83;2.83;;;;;;;13.09;66.09;99733.00;5111436;28;42082;-78
2022/05/09 02:53:24;;;;;;;4.23;2.90;;;;;;;13.05;65.95;99731.44;5111249;28;42364;-80
2022/05/09 02:55:52;;;;;;;3.50;2.43;;;;;;;13.03;66.08;99728.00;5111664;28;39721;-79
2022/05/09 02:58:20;;;;;;;4.43;3.00;;;;;;;13.01;65.99;99735.22;5094102;28;41905;-79
2022/05/09 03:00:48;;;;;;;3.17;2.40;;;;;;;12.93;66.08;99726.84;5094389;28;44408;-81
2022/05/09 03:06:02;;;;;;;4.17;2.83;;;;;;;12.85;65.82;99713.16;5094512;28;39313;-79
2022/05/09 03:08:31;;;;;;;3.10;2.37;;;;;;;12.93;65.66;99735.69;5110850;28;42677;-78
2022/05/09 03:10:58;;;;;;;2.50;2.30;;;;;;;12.90;65.38;99743.81;5111299;28;43556;-78
2022/05/09 03:13:27;;;;;;;2.80;2.50;;;;;;;12.89;64.97;99735.94;5127051;27;42506;-81
2022/05/09 03:15:54;;;;;;;3.53;2.53;;;;;;;12.87;64.94;99740.47;5131588;27;39963;-80
2022/05/09 03:18:25;;;;;;;2.93;2.20;;;;;;;12.86;64.74;99746.75;5113673;27;40327;-80
2022/05/09 03:20:53;;;;;;;4.50;2.23;;;;;;;12.79;64.77;99734.75;5128742;27;43496;-79
2022/05/09 03:23:21;;;;;;;5.47;2.63;;;;;;;12.80;64.64;99734.69;5131515;27;44575;-80
2022/05/09 03:25:49;;;;;;;2.33;2.03;;;;;;;12.67;64.83;99719.50;5116954;27;40183;-81
2022/05/09 03:28:20;;;;;;;3.73;2.10;;;;;;;12.70;64.86;99724.66;5090906;28;42716;-79
2022/05/09 03:30:51;;;;;;;2.33;2.10;;;;;;;12.73;65.14;99735.13;5090601;28;43298;-77
2022/05/09 03:33:19;;;;;;;2.43;2.23;;;;;;;12.58;65.07;99711.13;5090318;28;41126;-79
2022/05/09 03:35:50;;;;;;;3.27;2.77;;;;;;;12.69;64.92;99733.56;5090866;28;41158;-80
2022/05/09 03:38:18;;;;;;;3.03;2.33;;;;;;;12.67;64.99;99736.31;5090335;28;40667;-78
2022/05/09 03:40:45;;;;;;;5.17;2.90;;;;;;;12.56;64.64;99715.69;5080732;28;41727;-80
2022/05/09 03:43:13;;;;;;;3.10;2.40;;;;;;;12.59;64.96;99726.13;5093518;28;42458;-79
2022/05/09 03:45:44;;;;;;;3.50;2.53;;;;;;;12.63;65.10;99734.78;5112234;28;40855;-79
2022/05/09 03:48:12;;;;;;;2.83;2.20;;;;;;;12.60;65.17;99737.63;5111456;28;41898;-78
2022/05/09 03:50:40;;;;;;;4.90;3.27;;;;;;;12.60;65.04;99740.28;5112977;27;42929;-79
2022/05/09 03:53:09;;;;;;;3.43;2.53;;;;;;;12.59;65.35;99746.53;5097573;28;41229;-80
2022/05/09 03:55:37;;;;;;;2.27;2.00;;;;;;;12.43;65.13;99716.44;5114574;28;40674;-79
2022/05/09 03:58:05;;;;;;;3.40;2.50;;;;;;;12.58;64.97;99743.03;5114891;28;41825;-81
2022/05/09 04:00:36;;;;;;;2.77;2.27;;;;;;;12.59;65.28;99734.09;5115072;28;42294;-79
2022/05/09 04:03:04;;;;;;;5.63;2.77;;;;;;;12.57;65.51;99735.13;5114021;28;43164;-78
2022/05/09 04:05:34;;;;;;;2.43;2.23;;;;;;;12.53;65.20;99722.97;5115450;28;39942;-81
2022/05/09 04:08:03;;;;;;;3.33;2.60;;;;;;;12.63;65.08;99733.91;5114044;28;42785;-79
2022/05/09 04:10:34;;;;;;;2.43;2.07;;;;;;;12.62;64.86;99732.19;5115290;28;43720;-79
2022/05/09 04:13:02;;;;;;;3.70;2.67;;;;;;;12.63;65.49;99733.91;5096394;28;44038;-78
2022/05/09 04:18:17;;;;;;;2.73;2.47;;;;;;;12.69;64.67;99744.22;5128113;28;40790;-79
2022/05/09 04:20:46;;;;;;;2.83;2.53;;;;;;;12.61;64.81;99720.72;5129183;28;43991;-78
2022/05/09 04:23:14;;;;;;;2.97;2.43;;;;;;;12.73;65.20;99735.97;5123140;28;42586;-80
2022/05/09 04:25:44;;;;;;;3.70;2.40;;;;;;;12.73;64.79;99740.44;5105986;28;40112;-80
2022/05/09 04:28:12;;;;;;;3.27;2.10;;;;;;;12.75;64.91;99738.53;5122534;28;40833;-80
2022/05/09 04:30:39;;;;;;;2.30;1.93;;;;;;;12.84;64.83;99748.66;5112207;28;42507;-78
2022/05/09 04:33:08;;;;;;;3.80;2.20;;;;;;;12.86;64.68;99746.75;5107931;28;43186;-80
2022/05/09 04:35:39;;;;;;;3.43;2.60;;;;;;;12.88;64.82;99753.69;5114538;28;40575;-79
2022/05/09 04:38:07;;;;;;;3.10;2.50;;;;;;;12.96;64.31;99755.94;5096470;28;41937;-79
2022/05/09 04:40:36;;;;;;;3.33;2.70;;;;;;;13.04;64.39;99756.31;5114425;28;42878;-80
2022/05/09 04:43:06;;;;;;;4.30;2.70;;;;;;;13.07;64.28;99758.81;5096151;28;40788;-78
2022/05/09 04:45:34;;;;;;;3.67;2.33;;;;;;;13.17;64.01;99757.34;5096292;28;40185;-81
2022/05/09 04:48:05;;;;;;;4.37;2.37;;;;;;;13.24;63.50;99765.81;5095932;28;40781;-81
2022/05/09 04:50:34;;;;;;;3.87;2.23;;;;;;;13.32;63.82;99771.56;5115273;27;42903;-81
2022/05/09 04:53:03;;;;;;;4.40;2.37;;;;;;;13.38;63.42;99767.66;5134058;27;42237;-80
2022/05/09 04:55:32;;;;;;;3.10;2.00;;;;;;;13.48;63.32;99774.16;5119841;27;40592;-81
2022/05/09 04:58:00;;;;;;;3.33;1.80;;;;;;;13.45;62.75;99758.38;5113102;28;42458;-81
2022/05/09 05:00:30;;;;;;;3.53;2.30;;;;;;;13.62;62.60;99782.16;5109125;27;43037;-82
2022/05/09 05:02:58;;;;;;;4.43;2.00;;;;;;;13.69;62.10;99775.53;5075119;28;41192;-81
2022/05/09 05:05:27;;;;;;;2.87;2.30;;;;;;;13.76;61.79;99781.34;5092201;28;39915;-79
2022/05/09 05:07:54;;;;;;;3.40;2.23;;;;;;;13.82;62.06;99775.66;5092424;28;41580;-81
2022/05/09 05:10:23;;;;;;;3.43;2.17;;;;;;;13.94;61.73;99790.88;5092763;28;42801;-81
2022/05/09 05:12:51;;;;;;;5.23;2.37;;;;;;;14.02;61.79;99797.44;5107417;28;42310;-79
2022/05/09 05:15:19;;;;;;;2.77;1.90;;;;;;;14.12;61.27;99788.88;5113061;28;41001;-78
2022/05/09 05:17:48;;;;;;;2.63;2.20;;;;;;;14.22;60.58;99796.19;5095853;28;40859;-82
2022/05/09 05:20:16;;;;;;;3.63;2.00;;;;;;;14.34;60.43;99789.25;5108405;28;41695;-78
2022/05/09 05:22:47;;;;;;;3.70;1.90;;;;;;;14.45;59.99;99791.28;5092258;28;42394;-77
2022/05/09 05:25:18;;;;;;;3.03;2.10;;;;;;;14.53;59.97;99795.16;5100910;28;41730;-77
2022/05/09 05:27:47;;;;;;;2.00;1.70;;;;;;;14.64;59.69;99792.66;5112124;28;42218;-77
2022/05/09 05:30:15;;;;;;;2.13;1.73;;;;;;;14.74;59.67;99791.09;5094991;28;42848;-77
2022/05/09 05:32:43;;;;;;;1.83;1.63;;;;;;;14.82;59.48;99798.63;5106403;28;42269;-77
2022/05/09 05:35:14;;;;;;;2.30;1.57;;;;;;;14.94;58.63;99796.97;5091057;28;40243;-78
2022/05/09 05:37:42;;;;;;;3.10;2.10;;;;;;;15.01;58.12;99808.94;5073993;28;42619;-77
2022/05/09 05:40:11;;;;;;;1.63;1.50;;;;;;;15.12;57.74;99808.22;5111894;28;43405;-79
2022/05/09 05:42:41;;;;;;;2.03;1.40;;;;;;;15.22;57.42;99815.53;5094207;28;41517;-77
2022/05/09 05:45:11;;;;;;;4.57;1.50;;;;;;;15.30;56.83;99818.56;5094802;28;38890;-77
2022/05/09 05:47:39;;;;;;;1.87;1.60;;;;;;;15.39;56.41;99812.59;5100096;28;43249;-78
2022/05/09 05:50:10;;;;;;;3.53;2.10;;;;;;;15.60;55.50;99836.16;5074528;28;41824;-77
2022/05/09 05:52:39;;;;;;;1.50;1.30;;;;;;;15.68;55.59;99828.50;5074157;28;40993;-77
2022/05/09 05:55:07;;;;;;;3.43;1.60;;;;;;;15.80;55.61;99831.19;5091489;28;38788;-77
2022/05/09 05:57:38;;;;;;;4.47;1.47;;;;;;;15.92;55.49;99826.81;5073921;28;41687;-78
2022/05/09 06:00:10;;;;;;;1.93;1.40;;;;;;;15.99;55.50;99816.56;5074733;28;42728;-78
2022/05/09 06:02:44;;;;;;;1.53;1.30;;;;;;;16.17;55.28;99832.19;5091027;28;41482;-78
2022/05/09 06:05:13;;;;;;;2.97;1.60;;;;;;;16.27;55.16;99818.16;5091436;28;41831;-78
2022/05/09 06:07:43;;;;;;;1.87;1.70;;;;;;;16.48;54.31;99830.00;5090445;28;41820;-77
2022/05/09 06:10:12;;;;;;;3.70;1.77;;;;;;;16.51;54.56;99808.38;5072654;28;44659;-78
2022/05/09 06:12:40;;;;;;;6.50;1.80;;;;;;;16.74;54.13;99834.38;5088478;28;42337;-77
2022/05/09 06:15:31;;;;;;;1.73;1.60;;;;;;;16.92;53.54;99831.31;5089819;28;40113;-78
2022/05/09 06:18:01;;;;;;;2.00;1.57;;;;;;;17.18;53.86;99832.94;5090151;28;42370;-78
2022/05/09 06:20:31;;;;;;;1.67;1.30;;;;;;;17.34;52.89;99844.19;5090907;28;43700;-78
2022/05/09 06:23:01;;;;;;;3.97;2.00;;;;;;;17.49;52.36;99852.91;5072521;28;41443;-78
2022/05/09 06:25:29;;;;;;;4.97;1.83;;;;;;;17.60;52.82;99853.81;5090747;28;40515;-78
2022/05/09 06:27:58;;;;;;;3.43;1.60;;;;;;;17.69;51.96;99854.97;5090431;28;43664;-77
2022/05/09 06:30:26;;;;;;;4.43;1.97;;;;;;;17.84;51.07;99855.63;5090980;28;43741;-78
2022/05/09 06:32:54;;;;;;;2.67;2.07;;;;;;;18.22;51.03;99861.56;5073900;28;41309;-77
2022/05/09 06:35:24;;;;;;;2.33;1.50;;;;;;;18.66;49.71;99870.66;5092172;28;39857;-78
2022/05/09 06:38:01;;;;;;;3.83;1.83;;;;;;;19.07;49.19;99863.78;5090828;28;42436;-77
2022/05/09 06:40:30;;;;;;;2.50;1.50;;;;;;;19.32;49.48;99855.41;5073788;28;41841;-78
2022/05/09 06:42:59;;;;;;;2.17;1.57;;;;;;;19.46;48.63;99868.56;5090030;28;41578;-77
2022/05/09 06:45:30;;;;;;;2.40;1.50;;;;;;;19.59;48.51;99866.59;5075431;28;39319;-78
2022/05/09 06:47:58;;;;;;;3.77;1.60;;;;;;;19.60;47.43;99854.84;5089959;28;41655;-78
2022/05/09 06:50:28;;;;;;;2.23;1.50;;;;;;;19.91;47.60;99865.69;5090326;28;41867;-77
2022/05/09 06:53:00;;;;;;;3.00;1.67;;;;;;;20.08;47.68;99851.66;5090023;28;42668;-79
2022/05/09 06:55:28;;;;;;;2.17;1.50;;;;;;;20.20;48.23;99845.22;5090434;28;42532;-77
2022/05/09 06:57:55;;;;;;;3.17;1.50;;;;;;;20.42;47.48;99860.38;5090425;28;41278;-77
2022/05/09 07:00:25;;;;;;;4.13;1.87;;;;;;;20.50;47.65;99873.19;5091701;28;43067;-77
2022/05/09 07:02:53;;;;;;;3.37;1.67;;;;;;;20.50;47.29;99867.81;5090443;28;43226;-77
2022/05/09 07:05:22;;;;;;;3.03;2.10;;;;;;;20.56;45.71;99878.03;5090501;28;39242;-78
2022/05/09 07:07:50;;;;;;;2.23;1.90;;;;;;;20.59;44.18;99888.53;5090117;28;41570;-77
2022/05/09 07:10:21;;;;;;;2.97;2.10;;;;;;;20.70;46.23;99877.66;5077222;28;43090;-78
2022/05/09 07:12:51;;;;;;;3.53;1.80;;;;;;;20.82;46.29;99879.28;5090005;28;41254;-77
2022/05/09 07:15:21;;;;;;;3.30;2.10;;;;;;;21.01;44.37;99884.75;5073397;28;41191;-77
2022/05/09 07:17:50;;;;;;;5.20;2.10;;;;;;;21.13;44.36;99882.78;5091343;28;41451;-78
2022/05/09 07:20:20;;;;;;;3.10;1.73;;;;;;;21.28;43.67;99888.66;5107319;28;43759;-77
2022/05/09 07:22:48;;;;;;;3.63;1.87;;;;;;;21.36;44.14;99845.72;5090096;28;43055;-78
2022/05/09 07:25:17;;;;;;;2.67;2.07;;;;;;;21.84;43.31;99889.72;5093225;28;40969;-78
2022/05/09 07:27:47;;;;;;;6.07;2.00;;;;;;;22.17;43.09;99892.97;5080040;28;43053;-77
2022/05/09 07:30:17;;;;;;;2.03;1.83;;;;;;;22.40;42.97;99882.69;5094870;28;43062;-78
2022/05/09 07:32:47;;;;;;;3.80;1.90;;;;;;;22.52;42.35;99895.88;5093978;28;42492;-77
2022/05/09 07:35:17;;;;;;;5.70;2.00;;;;;;;22.57;42.89;99888.19;5093561;28;41301;-77
2022/05/09 07:37:46;;;;;;;1.87;1.40;;;;;;;22.86;42.67;99887.28;5093448;28;41743;-79
2022/05/09 07:40:16;;;;;;;4.20;2.10;;;;;;;23.21;43.44;99881.97;5076338;28;41754;-77
2022/05/09 07:42:49;;;;;;;2.63;1.67;;;;;;;23.57;41.12;99895.56;5092530;28;42632;-77
2022/05/09 07:45:19;;;;;;;3.30;1.93;;;;;;;23.79;42.05;99891.53;5076046;28;39556;-79
2022/05/09 07:47:47;;;;;;;3.23;1.70;;;;;;;23.77;41.62;99890.84;5092998;28;41780;-78
2022/05/09 07:50:18;;;;;;;3.33;1.70;;;;;;;23.74;42.84;99883.88;5076489;28;41827;-77
2022/05/09 07:52:46;;;;;;;2.80;1.80;;;;;;;23.75;41.38;99893.69;5091949;28;42284;-78
2022/05/09 07:55:16;;;;;;;3.60;2.00;;;;;;;23.93;41.56;99889.13;5094506;28;40087;-77
2022/05/09 07:57:43;;;;;;;1.90;1.73;;;;;;;24.24;40.16;99899.56;5075799;28;44413;-78
2022/05/09 08:00:14;;;;;;;3.03;2.10;;;;;;;24.46;41.37;99896.34;5093131;28;43991;-78
2022/05/09 08:02:50;;;;;;;3.90;2.13;;;;;;;24.68;39.39;99892.25;5109983;28;41186;-78
2022/05/09 08:05:18;;;;;;;4.10;2.00;;;;;;;24.87;39.58;99899.28;5076072;28;40036;-78
2022/05/09 08:07:46;;;;;;;4.03;1.90;;;;;;;25.18;39.68;99895.06;5095652;28;41582;-79
2022/05/09 08:10:15;;;;;;;2.30;1.90;;;;;;;25.52;37.74;99910.41;5094300;28;42791;-78
2022/05/09 08:12:44;;;;;;;2.90;1.90;;;;;;;26.04;36.48;99922.72;5092620;28;42948;-78
2022/05/09 08:15:16;;;;;;;2.10;1.90;;;;;;;26.17;38.07;99894.22;5095331;27;40129;-78
2022/05/09 08:17:45;;;;;;;3.80;1.80;;;;;;;26.55;38.46;99909.84;5114220;27;41743;-77
2022/05/09 08:20:13;;;;;;;3.37;2.13;;;;;;;26.76;36.88;99909.25;5113300;28;42711;-79
2022/05/09 08:22:41;;;;;;;2.27;2.03;;;;;;;26.92;36.84;99911.94;5096005;28;42309;-79
2022/05/09 08:25:12;;;;;;;3.77;1.80;;;;;;;27.32;36.33;99894.66;5113373;27;40056;-79
2022/05/09 08:27:41;;;;;;;2.97;2.23;;;;;;;27.90;34.35;99925.94;5095837;28;40476;-78
2022/05/09 08:30:09;;;;;;;3.70;2.07;;;;;;;28.57;33.04;99932.38;5114000;28;43753;-79
2022/05/09 08:32:40;;;;;;;2.63;2.10;;;;;;;29.17;31.75;99939.59;5112660;28;42916;-79
2022/05/09 08:35:09;;;;;;;4.13;2.20;;;;;;;29.64;30.79;99933.72;5113760;27;40640;-78
2022/05/09 08:37:37;;;;;;;2.77;2.57;;;;;;;30.40;29.67;99941.44;5113778;28;43199;-76
2022/05/09 08:40:06;;;;;;;2.37;1.80;;;;;;;31.08;30.02;99908.69;5114253;27;42578;-77
2022/05/09 08:42:41;;;;;;;3.23;2.00;;;;;;;32.18;29.51;99943.25;5111985;28;42707;-76
2022/05/09 08:45:17;;;;;;;2.40;1.93;;;;;;;33.09;27.92;99951.69;5110694;28;40119;-77
2022/05/09 08:48:07;;;;;;;4.97;2.17;;;;;;;34.33;25.85;99965.13;5111496;28;41494;-77
2022/05/09 08:50:48;;;;;;;3.13;2.10;;;;;;;35.34;25.90;99962.94;5109728;28;42707;-78
2022/05/09 08:53:23;;;;;;;3.60;2.27;;;;;;;35.64;25.14;99969.31;5112248;28;42680;-78
2022/05/09 08:55:52;;;;;;;2.03;1.70;;;;;;;35.55;24.41;99964.38;5110967;28;41280;-77
2022/05/09 08:58:33;;;;;;;2.20;2.00;;;;;;;34.97;24.98;99964.78;5112018;27;42043;-79
2022/05/09 09:01:03;;;;;;;2.27;2.07;;;;;;;34.04;26.73;99955.53;5112194;28;44783;-77
2022/05/09 09:03:37;;;;;;;2.60;2.20;;;;;;;33.25;26.83;99948.50;5095351;28;40879;-79
2022/05/09 09:06:11;;;;;;;3.67;2.67;;;;;;;32.80;28.04;99925.56;5110983;28;40147;-79
2022/05/09 09:08:58;;;;;;;2.70;2.13;;;;;;;33.08;28.04;99948.09;5095310;28;41084;-78
2022/05/09 09:11:37;;;;;;;2.43;2.23;;;;;;;33.16;26.30;99947.84;5109708;28;43541;-78
2022/05/09 09:14:11;;;;;;;1.90;1.80;;;;;;;32.87;27.26;99923.66;5095086;28;43414;-78
2022/05/09 09:16:53;;;;;;;3.20;2.20;;;;;;;32.77;27.42;99932.31;5112101;28;41698;-80
2022/05/09 09:19:46;;;;;;;2.80;1.93;;;;;;;32.15;29.54;99913.50;5112447;28;41625;-77
2022/05/09 09:22:29;;;;;;;2.53;2.33;;;;;;;31.62;28.06;99932.56;5113175;28;43734;-79
2022/05/09 09:25:21;;;;;;;3.47;2.10;;;;;;;31.56;29.08;99916.09;5109173;28;43501;-77
2022/05/09 09:27:54;;;;;;;2.97;2.20;;;;;;;31.72;27.70;99927.56;5111796;28;39647;-76
2022/05/09 09:30:25;;;;;;;3.20;1.93;;;;;;;31.53;29.60;99909.13;5112347;28;40942;-79
2022/05/09 09:32:56;;;;;;;1.87;1.63;;;;;;;31.47;29.23;99907.22;5111653;28;42702;-78
2022/05/09 09:35:35;;;;;;;2.63;1.70;;;;;;;31.78;30.13;99903.94;5112407;28;42157;-76
2022/05/09 09:38:10;;;;;;;2.90;2.00;;;;;;;32.16;28.58;99912.44;5094869;28;38613;-78
2022/05/09 09:40:38;;;;;;;3.47;2.20;;;;;;;32.61;27.89;99898.97;5095043;28;42444;-80
2022/05/09 09:43:06;;;;;;;2.23;2.03;;;;;;;32.77;26.78;99904.03;5112683;28;42691;-77
2022/05/09 09:45:40;;;;;;;3.40;2.20;;;;;;;32.54;28.75;99893.47;5113135;28;20229;-77
2022/05/09 09:48:11;;;;;;;2.43;2.07;;;;;;;32.53;28.47;99904.66;5110530;27;39945;-76
2022/05/09 09:50:53;;;;;;;1.90;1.80;;;;;;;32.92;27.95;99901.88;5109775;28;42659;-78
2022/05/09 09:53:31;;;;;;;3.73;2.27;;;;;;;34.19;25.45;99915.69;5094773;28;43250;-78
2022/05/09 09:56:01;;;;;;;3.40;1.97;;;;;;;34.56;25.33;99919.41;5112008;28;42402;-76
2022/05/09 09:58:30;;;;;;;2.80;2.20;;;;;;;34.70;25.41;99911.03;5111710;28;40008;-77
2022/05/09 10:01:06;;;;;;;1.80;1.70;;;;;;;34.71;25.71;99912.72;5094681;28;41913;-78
2022/05/09 10:03:37;;;;;;;1.97;1.77;;;;;;;34.40;25.75;99906.22;5113126;28;42707;-77
2022/05/09 10:06:15;;;;;;;2.77;2.57;;;;;;;33.99;25.14;99903.16;5108781;28;42915;-78
2022/05/09 10:08:45;;;;;;;2.03;1.83;;;;;;;33.48;26.26;99906.78;5108462;28;40127;-79
2022/05/09 10:11:21;;;;;;;4.63;2.10;;;;;;;33.45;26.81;99879.75;5113044;27;42436;-77
2022/05/09 10:13:52;;;;;;;3.07;1.83;;;;;;;34.34;26.34;99896.13;5109561;28;43839;-78
2022/05/09 10:16:27;;;;;;;2.40;2.07;;;;;;;35.55;24.41;99909.25;5108069;28;42441;-78
2022/05/09 10:18:56;;;;;;;2.67;2.10;;;;;;;36.59;22.87;99899.63;5111573;28;43101;-78
2022/05/09 10:27:14;;;;;;;2.05;1.90;;;;;;;37.49;21.53;99904.66;5111068;28;40778;-79
2022/05/09 10:29:47;;;;;;;2.22;1.98;;;;;;;37.60;22.66;99895.47;5107922;28;39965;-80
2022/05/09 10:32:18;;;;;;;2.33;2.17;;;;;;;37.46;21.46;99905.19;5083683;28;41188;-77
2022/05/09 10:34:52;;;;;;;2.10;1.90;;;;;;;37.64;22.45;99891.19;5107652;28;42725;-77
2022/05/09 10:37:27;;;;;;;2.30;2.13;;;;;;;38.08;22.18;99897.84;5092903;28;41353;-81
2022/05/09 10:40:02;;;;;;;2.92;2.10;;;;;;;38.85;21.67;99894.38;5109283;28;40150;-76
2022/05/09 10:42:37;;;;;;;2.15;1.95;;;;;;;39.49;21.42;99887.22;5086635;28;42625;-77
2022/05/09 10:45:11;;;;;;;2.17;1.95;;;;;;;39.03;21.45;99891.34;5092938;28;43000;-77
2022/05/09 10:47:44;;;;;;;3.13;2.63;;;;;;;38.16;20.71;99902.13;5110458;28;42241;-77
2022/05/09 10:50:17;;;;;;;2.30;2.10;;;;;;;37.39;22.91;99850.88;5093304;28;38824;-80
2022/05/09 10:52:55;;;;;;;3.47;2.40;;;;;;;37.95;21.97;99871.31;5109825;28;42614;-78
2022/05/09 10:55:28;;;;;;;2.00;1.80;;;;;;;38.66;21.45;99874.44;5108596;28;43505;-78
2022/05/09 10:58:03;;;;;;;2.13;2.03;;;;;;;38.86;20.49;99873.88;5106120;28;42298;-77
2022/05/09 11:00:33;;;;;;;2.27;2.07;;;;;;;38.41;21.51;99869.31;5116711;28;40047;-80
2022/05/09 11:03:14;;;;;;;2.30;2.10;;;;;;;37.74;20.46;99864.56;5118149;28;41948;-78
2022/05/09 11:05:57;;;;;;;2.33;2.13;;;;;;;37.06;21.40;99861.78;5115133;28;42734;-76
2022/05/09 11:08:35;;;;;;;3.50;2.20;;;;;;;36.51;21.87;99830.94;5118123;28;42248;-80
2022/05/09 11:11:15;;;;;;;2.70;2.07;;;;;;;36.65;21.98;99846.19;5115471;28;41009;-81
2022/05/09 11:13:54;;;;;;;3.40;2.33;;;;;;;37.13;21.49;99845.88;5115614;27;41743;-80
2022/05/09 11:16:33;;;;;;;2.30;2.20;;;;;;;37.62;22.21;99832.50;5115057;27;42724;-80
2022/05/09 11:19:17;;;;;;;2.95;2.20;;;;;;;37.65;19.83;99859.69;5114931;28;42992;-79
2022/05/09 11:21:51;;;;;;;1.92;1.83;;;;;;;37.31;20.94;99856.81;5115707;28;40552;-81
2022/05/09 11:24:34;;;;;;;2.53;2.30;;;;;;;36.89;23.36;99827.69;5100283;28;40588;-77
2022/05/09 11:27:21;;;;;;;2.27;1.90;;;;;;;36.64;22.58;99834.31;5098664;28;43565;-78
2022/05/09 11:29:57;;;;;;;2.93;2.27;;;;;;;36.67;22.24;99839.34;5115110;28;42984;-78
2022/05/09 11:32:37;;;;;;;2.17;1.97;;;;;;;37.08;20.98;99843.03;5094743;28;39890;-77
2022/05/09 11:35:31;;;;;;;2.40;2.20;;;;;;;37.35;21.48;99833.09;5106756;27;42526;-76
2022/05/09 11:38:29;;;;;;;2.93;2.73;;;;;;;37.38;21.75;99832.59;5134799;27;45148;-79
2022/05/09 11:41:17;;;;;;;3.43;2.20;;;;;;;37.45;21.18;99831.63;5121581;27;42905;-76
2022/05/09 11:44:02;;;;;;;4.50;2.40;;;;;;;37.88;22.18;99808.94;5112825;27;39850;-83
2022/05/09 11:46:52;;;;;;;2.20;2.00;;;;;;;38.13;20.16;99836.22;5112090;28;42685;-80
2022/05/09 11:49:39;;;;;;;2.13;2.03;;;;;;;38.37;19.31;99846.84;5102041;28;42902;-79
2022/05/09 11:52:15;;;;;;;2.73;2.20;;;;;;;38.91;19.72;99836.03;5116513;27;42329;-83
2022/05/09 11:54:48;;;;;;;2.70;2.43;;;;;;;39.85;19.10;99824.66;5086960;28;40531;-80
2022/05/09 11:57:23;;;;;;;2.17;2.07;;;;;;;40.86;18.51;99833.75;5116607;28;41967;-78
2022/05/09 11:59:54;;;;;;;2.50;2.30;;;;;;;42.02;17.23;99837.19;5115483;28;44567;-78
2022/05/09 12:02:47;;;;;;;2.28;2.08;;;;;;;43.15;16.37;99848.66;5116764;28;41797;-79
2022/05/09 12:05:44;;;;;;;2.38;2.17;;;;;;;44.18;15.75;99830.19;5114596;28;41043;-81
2022/05/09 12:08:17;;;;;;;2.40;2.17;;;;;;;44.84;14.17;99841.56;5111130;28;41674;-79
2022/05/09 12:10:49;;;;;;;2.60;2.40;;;;;;;44.99;14.46;99835.78;5096172;28;42952;-82